Airport View

Enter ICAO identifier to see the current METAR for that AWOS.

KFNL for example

KHIB 210804Z AUTO 13008KT 3SM BR OVC002 16/15 A2990

21 Aug 2014 08:14

Frequency: 126.425

Phone: 218-263-8384

Other Area AWOS: KEVM - KCQM - KGPZ - KORB

TAF AMD KHIB 210706Z 2107/2206 VRB05KT P6SM SKC TEMPO 2107/2110 1/2SM FG OVC002 FM211000 00000KT 1 1/2SM BR SCT004 OVC012 FM211500 10005KT P6SM VCSH OVC015 FM211800 11006KT P6SM VCTS OVC050CB FM220000 11004KT 6SM -DZ BR OVC015